createdAt,value
2024-04-24T00:00:39.030Z,42.50
2024-04-24T00:03:09.910Z,36.43
2024-04-24T00:05:37.455Z,32.70
2024-04-24T00:08:05.524Z,35.60
2024-04-24T00:10:32.675Z,36.43
2024-04-24T00:12:59.923Z,36.57
2024-04-24T00:15:27.042Z,33.03
2024-04-24T00:17:54.301Z,36.60
2024-04-24T00:20:21.812Z,32.17
2024-04-24T00:22:49.624Z,31.17
2024-04-24T00:25:16.772Z,32.77
2024-04-24T00:27:43.917Z,37.20
2024-04-24T00:30:13.565Z,33.97
2024-04-24T00:32:41.759Z,35.90
2024-04-24T00:35:09.104Z,31.00
2024-04-24T00:37:39.159Z,33.27
2024-04-24T00:40:09.473Z,37.00
2024-04-24T00:42:36.842Z,30.77
2024-04-24T00:45:04.318Z,37.87
2024-04-24T00:47:33.322Z,29.53
2024-04-24T00:50:02.563Z,34.80
2024-04-24T00:52:30.311Z,32.90
2024-04-24T00:54:57.961Z,23.00
2024-04-24T00:57:25.660Z,34.10
2024-04-24T00:59:53.019Z,31.77
2024-04-24T01:02:20.740Z,34.63
2024-04-24T01:04:48.334Z,31.20
2024-04-24T01:07:15.595Z,23.93
2024-04-24T01:09:42.776Z,37.67
2024-04-24T01:12:10.055Z,32.30
2024-04-24T01:14:37.961Z,31.27
2024-04-24T01:17:09.355Z,30.17
2024-04-24T01:19:47.742Z,28.87
2024-04-24T01:23:00.376Z,33.43
2024-04-24T01:26:16.354Z,32.37
2024-04-24T01:28:43.546Z,31.17
2024-04-24T01:31:10.720Z,32.90
2024-04-24T01:33:37.978Z,31.50
2024-04-24T01:36:05.854Z,34.50
2024-04-24T01:38:33.052Z,34.70
2024-04-24T01:41:00.275Z,30.43
2024-04-24T01:43:28.383Z,29.80
2024-04-24T01:45:55.475Z,32.47
2024-04-24T01:48:22.650Z,24.30
2024-04-24T01:50:49.805Z,31.70
2024-04-24T01:53:17.029Z,35.63
2024-04-24T01:55:44.205Z,30.40
2024-04-24T01:58:11.329Z,37.93
2024-04-24T02:00:38.506Z,28.20
2024-04-24T02:03:05.788Z,25.20
2024-04-24T02:05:33.050Z,32.03
2024-04-24T02:08:00.306Z,34.83
2024-04-24T02:10:28.398Z,33.47
2024-04-24T02:12:55.664Z,31.33
2024-04-24T02:15:22.827Z,34.67
2024-04-24T02:17:50.189Z,37.20
2024-04-24T02:20:17.858Z,25.97
2024-04-24T02:22:45.209Z,34.60
2024-04-24T02:25:30.781Z,35.07
2024-04-24T02:27:57.930Z,31.73
2024-04-24T02:30:25.109Z,34.97
2024-04-24T02:32:52.387Z,40.73
2024-04-24T02:35:19.674Z,36.67
2024-04-24T02:37:46.871Z,33.23
2024-04-24T02:40:14.031Z,33.70
2024-04-24T02:42:41.177Z,30.63
2024-04-24T02:45:08.695Z,32.03
2024-04-24T02:47:35.968Z,30.37
2024-04-24T02:50:03.431Z,38.83
2024-04-24T02:52:30.580Z,37.07
2024-04-24T02:54:57.880Z,34.70
2024-04-24T02:57:24.962Z,29.70
2024-04-24T02:59:52.124Z,32.93
2024-04-24T03:02:19.323Z,37.80
2024-04-24T03:04:46.730Z,29.33
2024-04-24T03:07:13.892Z,26.37
2024-04-24T03:09:41.005Z,30.67
2024-04-24T03:12:08.243Z,34.17
2024-04-24T03:14:35.391Z,34.47
2024-04-24T03:17:03.387Z,35.30
2024-04-24T03:19:30.628Z,31.30
2024-04-24T03:21:57.789Z,31.87
2024-04-24T03:24:24.896Z,26.40
2024-04-24T03:26:52.031Z,29.10
2024-04-24T03:29:21.644Z,34.87
2024-04-24T03:31:49.483Z,37.60
2024-04-24T03:34:17.037Z,30.73
2024-04-24T03:36:44.535Z,33.67
2024-04-24T03:39:11.616Z,33.17
2024-04-24T03:41:38.722Z,35.20
2024-04-24T03:44:05.991Z,37.90
2024-04-24T03:46:33.537Z,37.37
2024-04-24T03:49:00.756Z,34.63
2024-04-24T03:51:28.286Z,30.90
2024-04-24T03:53:55.382Z,31.70
2024-04-24T03:56:22.792Z,28.23
2024-04-24T03:58:50.051Z,28.13
2024-04-24T04:01:17.219Z,35.70
2024-04-24T04:03:44.390Z,38.07
2024-04-24T04:06:11.527Z,35.87
2024-04-24T04:08:38.630Z,33.27
2024-04-24T04:11:05.967Z,33.60
2024-04-24T04:13:33.181Z,36.07
2024-04-24T04:16:00.277Z,34.83
2024-04-24T04:18:28.403Z,32.90
2024-04-24T04:20:55.764Z,33.07
2024-04-24T04:23:23.058Z,40.73
2024-04-24T04:25:50.292Z,36.37
2024-04-24T04:28:17.545Z,35.67
2024-04-24T04:30:44.669Z,35.97
2024-04-24T04:33:12.033Z,33.53
2024-04-24T04:35:39.235Z,28.40
2024-04-24T04:38:06.354Z,30.10
2024-04-24T04:40:33.677Z,37.33
2024-04-24T04:43:00.746Z,29.57
2024-04-24T04:45:28.279Z,38.27
2024-04-24T04:47:55.749Z,34.00
2024-04-24T04:50:23.175Z,27.60
2024-04-24T04:52:50.434Z,36.23
2024-04-24T04:55:17.673Z,32.57
2024-04-24T04:57:44.879Z,28.37
2024-04-24T05:00:12.678Z,29.43
2024-04-24T05:02:39.965Z,33.87
2024-04-24T05:05:07.404Z,29.90
2024-04-24T05:07:34.551Z,37.13
2024-04-24T05:10:02.620Z,35.13
2024-04-24T05:12:29.826Z,31.30
2024-04-24T05:14:56.934Z,36.67
2024-04-24T05:17:24.383Z,25.27
2024-04-24T05:19:51.531Z,32.73
2024-04-24T05:22:18.699Z,31.50
2024-04-24T05:24:45.882Z,33.17
2024-04-24T05:27:31.903Z,31.83
2024-04-24T05:29:59.060Z,36.17
2024-04-24T05:59:12.500Z,33.87
2024-04-24T06:01:39.690Z,36.40
2024-04-24T06:04:07.097Z,34.20
2024-04-24T06:06:34.270Z,32.33
2024-04-24T06:09:02.372Z,32.70
2024-04-24T06:11:29.601Z,25.23
2024-04-24T06:13:56.816Z,36.40
2024-04-24T06:16:24.040Z,37.53
2024-04-24T06:18:51.301Z,38.37
2024-04-24T06:21:18.598Z,39.43
2024-04-24T06:23:45.721Z,38.13
2024-04-24T06:26:13.017Z,39.50
2024-04-24T06:28:40.137Z,37.00
2024-04-24T06:31:07.235Z,36.33
2024-04-24T06:33:34.394Z,29.67
2024-04-24T06:36:08.187Z,38.17
2024-04-24T06:38:35.556Z,29.33
2024-04-24T06:41:03.283Z,39.87
2024-04-24T06:43:30.564Z,33.53
2024-04-24T06:45:57.684Z,39.63
2024-04-24T06:48:25.026Z,47.23
2024-04-24T06:50:52.270Z,42.37
2024-04-24T06:53:19.426Z,34.43
2024-04-24T06:55:46.609Z,34.43
2024-04-24T06:58:13.789Z,32.03
2024-04-24T07:00:41.286Z,40.37
2024-04-24T07:03:08.429Z,29.27
2024-04-24T07:05:35.729Z,31.20
2024-04-24T07:08:03.953Z,36.93
2024-04-24T07:10:31.169Z,39.33
2024-04-24T07:12:58.293Z,38.20
2024-04-24T07:15:25.510Z,31.43
2024-04-24T07:17:52.756Z,32.17
2024-04-24T07:20:20.160Z,37.13
2024-04-24T07:22:47.633Z,34.70
2024-04-24T07:25:14.814Z,40.83
2024-04-24T07:27:42.027Z,39.27
2024-04-24T07:30:09.647Z,35.90
2024-04-24T07:32:36.939Z,42.03
2024-04-24T07:35:05.168Z,34.83
2024-04-24T07:37:32.371Z,38.77
2024-04-24T07:40:01.108Z,37.27
2024-04-24T07:42:28.251Z,38.33
2024-04-24T07:44:55.444Z,35.13
2024-04-24T07:47:22.771Z,34.27
2024-04-24T07:49:50.191Z,46.17
2024-04-24T07:52:17.400Z,32.80
2024-04-24T07:54:44.635Z,40.30
2024-04-24T07:57:11.866Z,36.50
2024-04-24T07:59:39.104Z,38.70
2024-04-24T08:02:06.439Z,34.30
2024-04-24T08:04:33.656Z,31.27
2024-04-24T08:07:00.747Z,36.50
2024-04-24T08:09:28.250Z,36.57
2024-04-24T08:11:55.649Z,36.20
2024-04-24T08:14:23.010Z,33.07
2024-04-24T08:16:50.259Z,32.53
2024-04-24T08:19:17.492Z,54.97
2024-04-24T08:21:44.689Z,27.27
2024-04-24T08:24:11.883Z,27.40
2024-04-24T08:26:38.993Z,31.40
2024-04-24T08:29:06.161Z,34.53
2024-04-24T08:31:33.378Z,27.13
2024-04-24T08:34:00.703Z,32.77
2024-04-24T08:36:28.404Z,31.43
2024-04-24T08:38:55.653Z,29.83
2024-04-24T08:41:22.896Z,25.67
2024-04-24T08:43:52.658Z,29.93
2024-04-24T08:46:20.552Z,44.07
2024-04-24T08:48:47.755Z,33.17
2024-04-24T08:51:15.071Z,37.63
2024-04-24T08:54:04.642Z,36.23
2024-04-24T08:56:37.786Z,46.23
2024-04-24T08:59:19.460Z,31.50
2024-04-24T09:02:07.534Z,37.17
2024-04-24T09:04:37.054Z,34.03
2024-04-24T09:07:05.042Z,35.87
2024-04-24T09:09:33.495Z,34.80
2024-04-24T09:12:08.003Z,33.87
2024-04-24T09:14:36.085Z,42.42
2024-04-24T09:17:06.313Z,36.43
2024-04-24T09:19:33.998Z,33.33
2024-04-24T09:22:04.551Z,42.97
2024-04-24T09:24:32.545Z,31.73
2024-04-24T09:26:59.705Z,37.07
2024-04-24T09:29:26.910Z,35.53
2024-04-24T09:31:54.134Z,33.33
2024-04-24T09:34:21.396Z,34.40
2024-04-24T09:36:49.102Z,25.48
2024-04-24T09:39:17.522Z,33.85
2024-04-24T09:41:48.200Z,29.77
2024-04-24T09:44:17.064Z,24.97
2024-04-24T09:46:49.399Z,25.00
2024-04-24T09:49:17.224Z,25.50
2024-04-24T09:51:44.567Z,25.13
2024-04-24T09:54:11.731Z,32.85
2024-04-24T09:56:49.162Z,23.73
2024-04-24T09:59:19.095Z,29.85
2024-04-24T10:01:55.252Z,24.02
2024-04-24T10:04:26.576Z,26.13
2024-04-24T10:06:55.086Z,29.40
2024-04-24T10:09:26.538Z,29.20
2024-04-24T10:12:04.933Z,27.05
2024-04-24T10:14:40.394Z,30.95
2024-04-24T10:17:09.035Z,33.55
2024-04-24T10:19:37.596Z,32.95
2024-04-24T10:22:04.936Z,38.53
2024-04-24T10:24:34.300Z,36.45
2024-04-24T10:27:03.856Z,30.88
2024-04-24T10:29:32.565Z,31.90
2024-04-24T10:32:03.006Z,33.30
2024-04-24T10:34:31.233Z,31.75
2024-04-24T10:37:00.271Z,34.13
2024-04-24T10:39:28.209Z,28.83
2024-04-24T10:41:55.421Z,36.85
2024-04-24T10:44:23.263Z,32.47
2024-04-24T10:46:50.661Z,31.73
2024-04-24T10:49:18.425Z,30.75
2024-04-24T10:51:48.764Z,35.75
2024-04-24T10:54:16.213Z,31.40
2024-04-24T10:56:44.569Z,29.85
2024-04-24T10:59:12.383Z,31.02
2024-04-24T11:01:53.383Z,32.47
2024-04-24T11:04:26.046Z,40.22
2024-04-24T11:06:53.689Z,31.70
2024-04-24T11:09:22.209Z,36.53
2024-04-24T11:11:51.241Z,37.80
2024-04-24T11:14:18.635Z,31.13
2024-04-24T11:16:59.407Z,30.77
2024-04-24T11:19:27.084Z,31.80
2024-04-24T11:21:54.231Z,31.58
2024-04-24T11:24:33.031Z,33.22
2024-04-24T11:27:02.693Z,30.50
2024-04-24T11:29:40.337Z,27.38
2024-04-24T11:32:09.225Z,29.00
2024-04-24T11:34:39.639Z,28.38
2024-04-24T11:37:07.227Z,31.45
2024-04-24T11:39:34.621Z,31.95
2024-04-24T11:42:02.502Z,31.80
2024-04-24T11:44:29.930Z,35.67
2024-04-24T11:46:58.024Z,30.55
2024-04-24T11:49:25.987Z,34.35
2024-04-24T11:51:56.470Z,26.05
2024-04-24T11:54:23.623Z,29.92
2024-04-24T11:56:51.631Z,30.42
2024-04-24T11:59:23.108Z,24.83
2024-04-24T12:01:50.343Z,32.97
2024-04-24T12:04:17.445Z,25.95
2024-04-24T12:06:45.519Z,32.45
2024-04-24T12:09:12.896Z,33.88
2024-04-24T12:11:46.940Z,28.60
2024-04-24T12:14:17.731Z,27.58
2024-04-24T12:16:45.186Z,29.17
2024-04-24T12:19:13.445Z,29.67
2024-04-24T12:21:41.255Z,31.20
2024-04-24T12:24:08.630Z,30.10
2024-04-24T12:26:35.800Z,29.27
2024-04-24T12:29:03.221Z,26.13
2024-04-24T12:31:30.542Z,34.00
2024-04-24T12:33:57.812Z,29.73
2024-04-24T12:36:25.174Z,25.42
2024-04-24T12:38:53.985Z,27.05
2024-04-24T12:41:21.257Z,27.23
2024-04-24T12:43:48.540Z,26.42
2024-04-24T12:46:15.759Z,28.33
2024-04-24T12:48:42.941Z,23.42
2024-04-24T12:51:10.144Z,30.38
2024-04-24T12:53:37.273Z,28.02
2024-04-24T12:56:04.841Z,28.75
2024-04-24T12:58:31.986Z,27.57
2024-04-24T13:00:59.267Z,25.65
2024-04-24T13:03:26.742Z,24.15
2024-04-24T13:05:54.163Z,29.95
2024-04-24T13:08:21.599Z,24.83
2024-04-24T13:10:48.851Z,25.30
2024-04-24T13:13:16.219Z,25.95
2024-04-24T13:15:43.370Z,23.98
2024-04-24T13:18:14.759Z,29.75
2024-04-24T13:20:42.158Z,33.13
2024-04-24T13:23:09.338Z,26.48
2024-04-24T13:25:36.669Z,17.83
2024-04-24T13:28:08.701Z,30.95
2024-04-24T13:30:35.918Z,21.00
2024-04-24T13:33:03.317Z,29.75
2024-04-24T13:35:30.519Z,23.85
2024-04-24T13:37:57.797Z,34.67
2024-04-24T13:40:24.949Z,25.63
2024-04-24T13:42:52.073Z,26.90
2024-04-24T13:45:19.305Z,26.48
2024-04-24T13:47:46.652Z,23.17
2024-04-24T13:50:15.044Z,30.10
2024-04-24T13:52:42.458Z,30.25
2024-04-24T13:55:09.939Z,24.83
2024-04-24T13:57:37.066Z,26.20
2024-04-24T14:00:05.514Z,28.98
2024-04-24T14:02:38.898Z,30.27
2024-04-24T14:05:08.270Z,29.65
2024-04-24T14:07:35.496Z,20.65
2024-04-24T14:10:02.647Z,24.40
2024-04-24T14:12:31.802Z,23.45
2024-04-24T14:14:59.939Z,33.10
2024-04-24T14:17:27.819Z,29.50
2024-04-24T14:19:56.173Z,22.60
2024-04-24T14:22:23.551Z,31.23
2024-04-24T14:24:51.646Z,31.98
2024-04-24T14:27:18.933Z,29.52
2024-04-24T14:29:46.101Z,28.85
2024-04-24T14:32:13.389Z,30.55
2024-04-24T14:34:43.139Z,29.00
2024-04-24T14:37:10.364Z,33.78
2024-04-24T14:39:38.837Z,35.53
2024-04-24T14:42:06.480Z,30.80
2024-04-24T14:44:33.678Z,22.73
2024-04-24T14:49:29.290Z,29.88
2024-04-24T14:51:56.483Z,29.10
2024-04-24T14:54:23.609Z,25.02
2024-04-24T14:56:50.707Z,32.35
2024-04-24T14:59:18.029Z,28.83
2024-04-24T15:01:45.299Z,23.58
2024-04-24T15:04:12.470Z,32.90
2024-04-24T15:07:09.049Z,28.40
2024-04-24T15:09:37.267Z,24.83
2024-04-24T15:12:04.865Z,27.80
2024-04-24T15:14:35.902Z,27.90
2024-04-24T15:17:03.661Z,27.55
2024-04-24T15:19:31.129Z,27.70
2024-04-24T15:21:59.284Z,28.55
2024-04-24T15:24:26.667Z,27.83
2024-04-24T15:26:53.845Z,32.25
2024-04-24T15:29:21.031Z,25.58
2024-04-24T15:31:48.153Z,22.88
2024-04-24T15:34:16.292Z,22.40
2024-04-24T15:36:43.511Z,20.27
2024-04-24T15:39:10.825Z,23.17
2024-04-24T15:41:39.400Z,16.85
2024-04-24T15:44:06.724Z,21.05
2024-04-24T15:46:33.909Z,24.63
2024-04-24T15:49:01.043Z,22.67
2024-04-24T15:51:28.205Z,19.48
2024-04-24T15:53:55.346Z,22.67
2024-04-24T15:56:22.456Z,23.88
2024-04-24T15:58:49.639Z,19.40
2024-04-24T16:01:17.352Z,16.60
2024-04-24T16:03:44.623Z,18.75
2024-04-24T16:06:11.759Z,16.63
2024-04-24T16:08:38.974Z,15.65
2024-04-24T16:11:06.169Z,22.58
2024-04-24T16:13:33.513Z,19.13
2024-04-24T16:16:00.615Z,20.17
2024-04-24T16:18:36.140Z,24.93
2024-04-24T16:21:09.829Z,22.50
2024-04-24T16:23:38.217Z,25.13
2024-04-24T16:26:05.975Z,27.77
2024-04-24T16:28:33.159Z,27.13
2024-04-24T16:31:00.368Z,28.58
2024-04-24T16:33:27.518Z,26.65
2024-04-24T16:35:54.667Z,25.55
2024-04-24T16:38:21.842Z,23.88
2024-04-24T16:40:48.984Z,21.90
2024-04-24T16:43:16.858Z,24.20
2024-04-24T16:45:43.991Z,24.45
2024-04-24T16:48:13.974Z,24.70
2024-04-24T16:50:41.521Z,27.02
2024-04-24T16:53:08.645Z,29.15
2024-04-24T16:55:35.807Z,20.85
2024-04-24T16:58:03.366Z,26.60
2024-04-24T17:00:30.477Z,28.52
2024-04-24T17:02:57.714Z,32.23
2024-04-24T17:05:25.047Z,23.58
2024-04-24T17:07:52.563Z,23.95
2024-04-24T17:10:20.235Z,29.27
2024-04-24T17:12:47.342Z,29.65
2024-04-24T17:15:14.552Z,28.20
2024-04-24T17:17:41.861Z,28.38
2024-04-24T17:20:09.769Z,29.25
2024-04-24T17:22:36.917Z,25.75
2024-04-24T17:25:04.387Z,24.20
2024-04-24T17:27:31.596Z,32.92
2024-04-24T17:29:59.300Z,28.83
2024-04-24T17:32:26.651Z,39.75
2024-04-24T17:34:53.875Z,31.42
2024-04-24T17:37:21.646Z,40.25
2024-04-24T17:39:48.744Z,100.20
2024-04-24T17:42:15.841Z,80.75
2024-04-24T17:44:43.040Z,68.43
2024-04-24T17:47:11.961Z,33.63
2024-04-24T17:49:39.468Z,23.20
2024-04-24T17:52:06.916Z,28.73
2024-04-24T17:54:36.986Z,24.33
2024-04-24T17:57:04.678Z,24.45
2024-04-24T17:59:32.368Z,25.77
2024-04-24T18:01:59.580Z,29.65
2024-04-24T18:04:27.016Z,30.92
2024-04-24T18:06:54.476Z,21.20
2024-04-24T18:09:21.645Z,23.05
2024-04-24T18:11:48.938Z,30.70
2024-04-24T18:14:16.186Z,20.60
2024-04-24T18:16:43.521Z,28.92
2024-04-24T18:19:10.721Z,23.92
2024-04-24T18:21:40.584Z,23.55
2024-04-24T18:24:08.527Z,21.02
2024-04-24T18:26:36.599Z,21.50
2024-04-24T18:29:03.778Z,23.23
2024-04-24T18:31:33.291Z,22.23
2024-04-24T18:34:00.752Z,23.02
2024-04-24T18:36:28.086Z,24.67
2024-04-24T18:38:55.819Z,24.17
2024-04-24T18:41:23.148Z,17.67
2024-04-24T18:43:50.336Z,24.27
2024-04-24T18:46:17.445Z,20.35
2024-04-24T18:48:44.710Z,26.23
2024-04-24T18:51:12.199Z,29.33
2024-04-24T18:53:39.314Z,32.25
2024-04-24T18:56:07.907Z,29.92
2024-04-24T18:58:38.326Z,22.65
2024-04-24T19:01:05.551Z,28.50
2024-04-24T19:03:32.865Z,26.20
2024-04-24T19:06:00.049Z,22.77
2024-04-24T19:08:28.334Z,14.90
2024-04-24T19:10:56.225Z,17.95
2024-04-24T19:13:24.740Z,24.45
2024-04-24T19:15:52.122Z,19.75
2024-04-24T19:18:21.171Z,18.98
2024-04-24T19:20:48.510Z,17.90
2024-04-24T19:23:15.748Z,24.98
2024-04-24T19:25:42.896Z,22.00
2024-04-24T19:28:10.403Z,24.73
2024-04-24T19:30:37.539Z,20.95
2024-04-24T19:33:05.076Z,19.93
2024-04-24T19:35:32.349Z,22.05
2024-04-24T19:37:59.621Z,20.83
2024-04-24T19:40:29.900Z,28.33
2024-04-24T19:43:01.166Z,27.50
2024-04-24T19:45:28.646Z,15.85
2024-04-24T19:47:56.922Z,26.02
2024-04-24T19:50:24.206Z,21.52
2024-04-24T19:52:51.435Z,16.10
2024-04-24T19:55:18.842Z,22.80
2024-04-24T19:57:45.965Z,24.87
2024-04-24T20:00:14.110Z,18.88
2024-04-24T20:02:41.321Z,22.85
2024-04-24T20:05:08.614Z,17.10
2024-04-24T20:07:36.770Z,22.97
2024-04-24T20:10:05.778Z,25.50
2024-04-24T20:12:33.139Z,25.87
2024-04-24T20:15:00.371Z,26.60
2024-04-24T20:17:28.187Z,22.60
2024-04-24T20:19:55.569Z,20.77
2024-04-24T20:22:22.670Z,21.73
2024-04-24T20:24:49.789Z,21.93
2024-04-24T20:27:17.043Z,22.63
2024-04-24T20:29:44.226Z,19.57
2024-04-24T20:32:11.402Z,23.50
2024-04-24T20:34:38.561Z,29.13
2024-04-24T20:37:05.919Z,41.55
2024-04-24T20:39:33.064Z,39.97
2024-04-24T20:42:00.177Z,36.55
2024-04-24T20:44:28.438Z,31.03
2024-04-24T20:46:55.636Z,24.35
2024-04-24T20:49:23.088Z,20.25
2024-04-24T20:51:50.979Z,54.33
2024-04-24T20:54:18.611Z,34.73
2024-04-24T20:56:45.754Z,25.67
2024-04-24T20:59:13.128Z,31.63
2024-04-24T21:01:40.966Z,28.03
2024-04-24T21:04:08.615Z,28.07
2024-04-24T21:06:38.972Z,25.47
2024-04-24T21:09:07.539Z,25.40
2024-04-24T21:11:34.753Z,22.73
2024-04-24T21:14:02.646Z,21.07
2024-04-24T21:16:29.804Z,24.38
2024-04-24T21:18:56.992Z,22.43
2024-04-24T21:21:24.200Z,22.63
2024-04-24T21:23:55.272Z,29.47
2024-04-24T21:26:22.676Z,29.08
2024-04-24T21:28:49.846Z,31.17
2024-04-24T21:31:17.064Z,24.53
2024-04-24T21:33:44.232Z,22.17
2024-04-24T21:36:11.384Z,25.60
2024-04-24T21:38:38.678Z,22.17
2024-04-24T21:41:19.506Z,21.43
2024-04-24T21:43:47.128Z,17.63
2024-04-24T21:46:15.564Z,29.63
2024-04-24T21:48:43.105Z,27.77
2024-04-24T21:51:11.666Z,29.17
2024-04-24T21:53:42.636Z,32.90
2024-04-24T21:56:10.087Z,31.10
2024-04-24T21:58:37.352Z,25.05
2024-04-24T22:01:04.807Z,27.27
2024-04-24T22:03:33.334Z,28.73
2024-04-24T22:06:04.184Z,29.45
2024-04-24T22:08:31.484Z,27.43
2024-04-24T22:10:58.834Z,23.13
2024-04-24T22:13:26.565Z,27.90
2024-04-24T22:15:53.822Z,26.20
2024-04-24T22:18:21.215Z,31.30
2024-04-24T22:20:48.450Z,27.63
2024-04-24T22:23:16.593Z,25.47
2024-04-24T22:25:44.466Z,23.23
2024-04-24T22:28:14.415Z,26.97
2024-04-24T22:30:42.310Z,26.00
2024-04-24T22:33:09.591Z,24.88
2024-04-24T22:35:36.887Z,20.33
2024-04-24T23:11:32.956Z,27.10
2024-04-24T23:14:00.092Z,19.83
2024-04-24T23:16:28.362Z,23.90
2024-04-24T23:18:55.490Z,22.50
2024-04-24T23:21:22.596Z,24.27
2024-04-24T23:23:49.811Z,21.60
2024-04-24T23:26:16.956Z,23.27
2024-04-24T23:28:44.082Z,23.50
2024-04-24T23:31:11.253Z,23.70
2024-04-24T23:33:38.543Z,20.20
2024-04-24T23:36:06.443Z,22.27
2024-04-24T23:48:35.042Z,26.03
